If you wish to contribute or participate in the discussions about articles you are invited to join SKYbrary as a registered user

 Actions

Durango-La Plata County Airport

From SKYbrary Wiki

KDRO
Airport
ICAO: KDRO
Summary
Name Durango-La Plata County Airport
Region North America
Territory United States US.gif
Location Durango, Colorado
Serving
Coordinates 37° 9' 39.11" N, 107° 45' 4.45" W
Runways
Designator Length Width Surface ROPS
3/21 2804 m9,199.475 ft
46 m150.919 ft
ASPH-G yes/yes


METAR
Observation KDRO 221753Z AUTO 23004KT 10SM CLR 09/M09 A3032 RMK AO2 SLP264 T00891094 10089 21061 58004
Station Durango, Durango-La Plata County Airport
Date/Time 22 October 2019 17:53:00
Wind direction 230°
Wind speed 04 kts
Lowest cloud amount n/a
Temperature 8.9°C
Dew point
Humidity 26%
QNH hPa
Weather condition n/a

RE
Tag(s) Hot and High Operations

Durango-La Plata County Airport

ICAO: KDRO IATA: DRO

Description

Durango–La Plata County Airport is a public airport located 16 km8.639 nm
16,000 m
52,493.438 ft
southeast of the central business district of Durango, a city in La Plata County, Colorado.

Climatology

Semi-arid Steppe climate (Köppen climate classification BSk) - Little precipitation, hot summers and cold winters, sometimes with large changes in temperature in a 24 hour period.

Maps

Terrain

Loading map...

Airport Layout

Loading map...


Accidents & Serious Incidents at or in vicinity of KDRO

None on SKYbrary